Aérodrome :
LOGIN :

S'inscrire | Disclaimer

   EN    FR    IT 

 










Légende :    VFR   VFR Marginal   IFR   IFR Intensif   IFR Très Intensif
Visi : 
Plafond : 
>= 8 km
>= 3000ft
5 à 8 km
1000 à 3000 ft
1500m à 5 km
500 à 1000 ft
800 à 1500m
200 à 500 ft
< 800m
< 200 ft
Symboles :   Orages  Brouillard  Fortes neiges  Fortes précipitations  Vent > 20 kt
SIGMETs :   Divers  Orages  Givrage  Turbulence  Onde Orograph.  Cendres Volcan.







- Altitude de l'aérodrome : 348 ft
- Code IATA : STN
- Voir les cartes d'approche


EGSS - London Stansted

DERNIER METAR :
  • 221350Z AUTO 26006KT 9999 NCD 05/M01 Q1000

METARs EXPIRÉS :
  • 221320Z AUTO 27006KT 250V310 9999 NCD 05/M00 Q1000
  • 221250Z AUTO 28007KT 240V310 9999 NCD 05/00 Q1001
  • 221220Z AUTO 28007KT 260V320 9999 FEW018 05/01 Q1001
  • 221150Z AUTO 26007KT 9999 NCD 04/01 Q1002
  • 221120Z AUTO 26007KT 9999 NCD 04/01 Q1002

TAF TAF EGSS
Valide du 22 à 12h jusqu'au 23 à 18h UTC


221102Z 2212/2318 26008KT 9999 SCT025
TEMPO 2215/2219 3000 SHRASN BKN005
PROB30
TEMPO 2215/2220 0800 SHSN BKN002
PROB30
TEMPO 2300/2309 BKN008
BECMG 2303/2306 32010KT
ATIS : +44 1279 669 325
Pas de NOTAMs connus pour ce terrain.
1 SIGMET publié pour la FIR London (EGTT) :
 
Turbulence forte
EGTT SIGMET 01 VALID 221030/221430 EGRR
EGTT LONDON FIR SEV TURB FCST WI N5220 W00530 - N5429 W00530 - N5214 W00410 - N5045 W00342 - N4947 W00604 - N5143 W00639 - N5220 W00530 FL160/400 MOV E 15KT NC=



MET'MAP, la Météo Aéronautique d'un coup d'oeil ! - Copyright ORBIFLY Décembre 2007 - Disclaimer

ORBIFLY MET'MAP TEAM :

Programmation & Développement : Alexandra Zaïnal
Conception & Développement : Baudouin d'Aumeries
Co-Programmation & Développement : Marc-Olivier Méhu
Soutien technique & logistique : Manuel Goepfert

Contact : metmap@orbifly.com




SOURCES & CREDITS :

   NOAA